Time;durP1;ratioP1;P1;durP2;ratioP2;P2;SDS_P1;SDS_P2;PMS_P1;PMS_P2;Temp;Humidity;BMP_temperature;BMP_pressure;BME280_temperature;BME280_humidity;BME280_pressure;Samples;Min_cycle;Max_cycle;Signal;HPM_P1;HPM_P2
2024/01/28 00:00:51;;;;;;;12.65;4.22;;;;;;;3.67;56.34;101069.47;5127831;28;20043;-71
2024/01/28 00:03:20;;;;;;;8.75;4.50;;;;;;;3.67;56.28;101074.72;5127539;28;20047;-71
2024/01/28 00:05:49;;;;;;;7.70;4.30;;;;;;;3.66;56.47;101067.72;5127700;28;20052;-71
2024/01/28 00:08:16;;;;;;;6.78;4.25;;;;;;;3.64;56.37;101069.47;5127239;28;20105;-70
2024/01/28 00:10:43;;;;;;;7.97;4.63;;;;;;;3.68;56.46;101065.97;5127268;28;20069;-71
2024/01/28 00:13:09;;;;;;;6.35;3.50;;;;;;;3.66;56.57;101069.47;5127267;28;20043;-71
2024/01/28 00:15:36;;;;;;;9.23;3.80;;;;;;;3.45;56.42;101020.53;5127427;28;20081;-71
2024/01/28 00:18:03;;;;;;;10.45;3.97;;;;;;;3.55;56.49;101072.09;5127266;28;20262;-71
2024/01/28 00:20:29;;;;;;;9.00;4.15;;;;;;;3.59;56.67;101065.09;5127713;28;20214;-70
2024/01/28 00:22:57;;;;;;;6.80;4.20;;;;;;;3.52;56.90;101066.84;5127235;28;20196;-71
2024/01/28 00:25:24;;;;;;;7.95;4.07;;;;;;;2.99;56.64;100968.09;5127339;28;20115;-71
2024/01/28 00:27:51;;;;;;;6.47;3.90;;;;;;;3.51;56.99;101068.59;5127241;28;20043;-71
2024/01/28 00:30:18;;;;;;;7.07;4.82;;;;;;;3.56;56.65;101075.59;5126975;28;20039;-71
2024/01/28 00:32:45;;;;;;;7.22;4.65;;;;;;;3.61;56.43;101082.56;5126942;28;20051;-70
2024/01/28 00:35:11;;;;;;;6.40;4.18;;;;;;;3.64;56.65;101094.81;5127494;28;20111;-71
2024/01/28 00:37:38;;;;;;;8.32;4.57;;;;;;;3.45;56.29;101057.22;5127409;28;20035;-71
2024/01/28 00:40:09;;;;;;;5.97;3.95;;;;;;;3.70;56.24;101098.31;5126831;28;20068;-71
2024/01/28 00:42:36;;;;;;;6.25;4.50;;;;;;;3.63;56.49;101093.94;5125998;28;20044;-71
2024/01/28 00:45:03;;;;;;;7.65;3.95;;;;;;;3.66;56.56;101088.69;5126997;28;20196;-71
2024/01/28 00:47:29;;;;;;;7.47;4.05;;;;;;;3.66;56.67;101093.06;5126635;28;20305;-70
2024/01/28 00:49:56;;;;;;;6.68;4.35;;;;;;;3.67;56.48;101095.69;5126783;28;20052;-71
2024/01/28 00:52:23;;;;;;;8.98;4.50;;;;;;;3.67;56.43;101095.69;5126824;28;20096;-71
2024/01/28 00:54:49;;;;;;;8.40;3.90;;;;;;;3.59;56.65;101101.81;5126503;28;20044;-71
2024/01/28 00:57:17;;;;;;;5.65;3.83;;;;;;;3.45;56.55;101079.06;5126729;28;20081;-71
2024/01/28 00:59:44;;;;;;;7.15;3.85;;;;;;;3.65;56.38;101099.19;5126499;28;20238;-70
2024/01/28 01:02:10;;;;;;;8.60;4.15;;;;;;;3.58;56.54;101105.28;5126666;28;20055;-71
2024/01/28 01:04:37;;;;;;;11.82;5.15;;;;;;;3.58;56.48;101110.53;5126993;28;20047;-71
2024/01/28 01:07:04;;;;;;;5.85;3.90;;;;;;;3.58;56.67;101111.41;5126218;28;20056;-71
2024/01/28 01:09:30;;;;;;;8.25;4.30;;;;;;;3.51;56.97;101105.28;5126635;28;20043;-70
2024/01/28 01:11:57;;;;;;;7.32;3.90;;;;;;;3.53;56.71;101114.03;5125797;28;20040;-70
2024/01/28 01:14:25;;;;;;;7.38;4.72;;;;;;;3.56;56.77;101118.41;5126851;28;20319;-70
2024/01/28 01:16:52;;;;;;;8.05;4.90;;;;;;;3.54;56.72;101114.91;5126254;28;20155;-70
2024/01/28 01:19:19;;;;;;;8.07;4.53;;;;;;;3.39;56.61;101083.44;5127468;28;20055;-70
2024/01/28 01:21:48;;;;;;;7.55;3.90;;;;;;;3.53;56.82;101111.41;5128501;28;20060;-70
2024/01/28 01:24:15;;;;;;;6.78;4.20;;;;;;;3.59;56.91;101122.78;5128022;28;20051;-70
2024/01/28 01:26:42;;;;;;;8.18;4.57;;;;;;;3.34;56.51;101077.31;5126650;28;20039;-70
2024/01/28 01:29:08;;;;;;;7.15;3.90;;;;;;;3.63;56.78;101120.16;5127118;28;20044;-70
2024/01/28 01:31:36;;;;;;;6.75;4.28;;;;;;;2.81;56.77;100999.47;5127447;28;20052;-70
2024/01/28 01:34:03;;;;;;;7.50;4.18;;;;;;;3.53;56.64;101126.25;5127033;28;20065;-70
2024/01/28 01:36:30;;;;;;;8.00;4.80;;;;;;;3.57;56.93;101119.28;5126842;28;20043;-70
2024/01/28 01:38:57;;;;;;;8.90;5.00;;;;;;;3.59;56.75;101117.53;5126585;28;20093;-70
2024/01/28 01:41:25;;;;;;;9.10;4.55;;;;;;;3.59;56.85;101125.41;5126508;28;20094;-71
2024/01/28 01:43:52;;;;;;;5.40;3.75;;;;;;;2.61;56.72;100975.88;5126230;28;20103;-70
2024/01/28 01:46:18;;;;;;;7.22;4.30;;;;;;;3.57;57.03;101119.28;5126206;28;20039;-70
2024/01/28 01:48:47;;;;;;;7.80;4.22;;;;;;;3.58;56.91;101121.91;5125603;28;20050;-70
2024/01/28 01:51:14;;;;;;;7.65;4.60;;;;;;;3.57;56.77;101122.78;5126171;28;20173;-70
2024/01/28 01:53:41;;;;;;;6.45;4.22;;;;;;;3.59;56.91;101117.53;5126413;28;20055;-69
2024/01/28 01:56:08;;;;;;;7.90;3.83;;;;;;;3.60;56.77;101116.66;5126103;28;20055;-71
2024/01/28 01:58:36;;;;;;;5.20;3.88;;;;;;;3.59;56.94;101112.28;5126379;28;20295;-72
2024/01/28 02:01:03;;;;;;;6.15;4.60;;;;;;;3.53;57.01;101114.03;5126096;28;20052;-72
2024/01/28 02:03:29;;;;;;;5.25;3.70;;;;;;;3.57;56.89;101109.66;5125888;28;20043;-72
2024/01/28 02:05:58;;;;;;;8.82;4.40;;;;;;;3.51;56.97;101120.16;5126322;28;20084;-72
2024/01/28 02:08:26;;;;;;;8.75;5.05;;;;;;;3.53;57.19;101111.41;5125482;28;20097;-72
2024/01/28 02:10:53;;;;;;;7.15;4.50;;;;;;;3.48;57.05;101118.38;5126038;28;20039;-73
2024/01/28 02:13:19;;;;;;;9.65;4.93;;;;;;;3.32;57.36;101089.53;5125725;28;20342;-71
2024/01/28 02:15:46;;;;;;;5.55;4.40;;;;;;;3.51;57.16;101126.25;5125667;28;20227;-71
2024/01/28 02:18:13;;;;;;;8.35;4.60;;;;;;;3.56;56.84;101109.66;5126206;28;20027;-69
2024/01/28 02:20:39;;;;;;;6.68;4.43;;;;;;;3.54;56.91;101114.91;5125095;28;20043;-69
2024/01/28 02:23:08;;;;;;;12.88;4.88;;;;;;;3.53;56.80;101111.41;5125950;28;20043;-70
2024/01/28 02:25:37;;;;;;;8.93;4.55;;;;;;;3.55;56.74;101116.66;5125352;28;20051;-70
2024/01/28 02:28:04;;;;;;;8.55;4.30;;;;;;;3.51;56.74;101109.66;5125727;28;20050;-70
2024/01/28 02:30:30;;;;;;;8.13;4.65;;;;;;;3.47;56.76;101115.75;5125792;28;20241;-70
2024/01/28 02:32:57;;;;;;;8.85;4.13;;;;;;;3.46;57.05;101107.03;5125773;28;20050;-71
2024/01/28 02:35:23;;;;;;;11.57;4.55;;;;;;;3.47;56.93;101107.91;5125742;28;20054;-70
2024/01/28 02:37:50;;;;;;;9.68;4.53;;;;;;;3.47;57.20;101114.03;5126014;28;20105;-70
2024/01/28 02:40:17;;;;;;;10.25;5.53;;;;;;;3.49;57.13;101112.28;5125522;28;20046;-70
2024/01/28 02:42:45;;;;;;;9.02;4.53;;;;;;;3.49;57.10;101114.03;5126072;28;20043;-70
2024/01/28 02:45:12;;;;;;;9.55;4.50;;;;;;;3.44;57.16;101108.78;5125934;28;20051;-69
2024/01/28 02:47:38;;;;;;;8.23;4.40;;;;;;;3.43;57.08;101117.50;5129231;28;20043;-69
2024/01/28 02:50:05;;;;;;;6.55;4.13;;;;;;;3.47;57.13;101113.16;5129142;28;20235;-69
2024/01/28 02:52:32;;;;;;;7.30;4.63;;;;;;;3.24;57.11;101079.03;5129029;28;20051;-70
2024/01/28 02:54:59;;;;;;;8.10;4.10;;;;;;;3.47;57.17;101118.38;5128051;28;20315;-70
2024/01/28 02:57:25;;;;;;;9.63;4.90;;;;;;;3.43;57.29;101119.25;5129071;28;20036;-70
2024/01/28 02:59:54;;;;;;;8.23;4.55;;;;;;;3.39;57.37;101123.63;5128743;28;20057;-70
2024/01/28 03:02:21;;;;;;;6.18;5.30;;;;;;;3.38;57.67;101123.63;5129282;28;20308;-70
2024/01/28 03:04:47;;;;;;;8.73;4.63;;;;;;;3.39;57.38;101121.00;5129003;28;20039;-70
2024/01/28 03:07:14;;;;;;;8.07;4.07;;;;;;;3.34;57.55;101127.09;5128502;28;20104;-70
2024/01/28 03:09:41;;;;;;;6.50;4.40;;;;;;;3.09;57.69;101079.88;5129137;28;20039;-70
2024/01/28 03:12:08;;;;;;;8.63;4.60;;;;;;;3.35;57.51;101118.38;5128840;28;20043;-70
2024/01/28 03:14:35;;;;;;;8.48;4.63;;;;;;;3.33;57.77;101118.38;5127913;28;20250;-69
2024/01/28 03:17:03;;;;;;;12.15;4.68;;;;;;;3.35;57.73;101116.63;5128402;28;20338;-69
2024/01/28 03:19:30;;;;;;;9.70;4.45;;;;;;;3.35;57.74;101126.22;5128597;28;20295;-70
2024/01/28 03:21:57;;;;;;;4.85;3.78;;;;;;;3.30;57.76;101135.81;5128649;28;20048;-70
2024/01/28 03:24:23;;;;;;;9.80;4.50;;;;;;;3.28;57.91;101121.84;5128293;28;20096;-70
2024/01/28 03:26:50;;;;;;;4.97;3.75;;;;;;;3.31;57.99;101125.34;5128813;28;20044;-70
2024/01/28 03:29:17;;;;;;;6.20;3.75;;;;;;;3.28;57.72;101116.59;5128428;28;20092;-70
2024/01/28 03:31:44;;;;;;;9.55;4.68;;;;;;;3.26;57.88;101119.22;5128488;28;20043;-70
2024/01/28 03:34:12;;;;;;;9.98;4.68;;;;;;;3.26;57.96;101116.59;5128427;28;20047;-70
2024/01/28 03:36:39;;;;;;;7.88;4.28;;;;;;;3.25;57.78;101117.47;5128050;28;20039;-70
2024/01/28 03:39:06;;;;;;;8.82;4.93;;;;;;;2.52;58.08;101000.28;5128314;28;20039;-70
2024/01/28 03:41:32;;;;;;;5.53;4.18;;;;;;;3.22;57.97;101116.59;5128253;28;20043;-69
2024/01/28 03:43:59;;;;;;;7.75;4.22;;;;;;;3.14;58.15;101106.97;5128467;28;20299;-70
2024/01/28 03:46:26;;;;;;;7.65;3.92;;;;;;;3.14;58.18;101103.47;5127854;28;20092;-70
2024/01/28 03:48:52;;;;;;;6.82;3.88;;;;;;;3.12;58.20;101099.97;5128043;28;20234;-71
2024/01/28 03:51:20;;;;;;;6.30;3.95;;;;;;;3.05;58.49;101100.81;5127786;28;20056;-70
2024/01/28 03:53:47;;;;;;;5.63;3.70;;;;;;;3.07;58.27;101110.44;5128006;28;20288;-71
2024/01/28 03:56:14;;;;;;;6.25;4.15;;;;;;;3.02;58.21;101111.28;5127446;28;20093;-71
2024/01/28 03:58:41;;;;;;;5.70;3.60;;;;;;;3.06;58.32;101116.53;5128180;28;20155;-71
2024/01/28 04:01:08;;;;;;;6.55;3.92;;;;;;;3.09;58.21;101119.16;5127826;28;20044;-71
2024/01/28 04:03:34;;;;;;;6.97;4.18;;;;;;;3.03;58.26;101120.91;5128137;28;20085;-70
2024/01/28 04:06:02;;;;;;;6.07;4.10;;;;;;;2.78;58.13;101085.88;5127470;28;20296;-71
2024/01/28 04:08:30;;;;;;;10.20;4.18;;;;;;;3.07;58.09;101131.38;5107219;28;20055;-71
2024/01/28 04:10:57;;;;;;;5.68;3.60;;;;;;;3.05;57.88;101140.09;5107345;28;20043;-71
2024/01/28 04:13:23;;;;;;;8.35;4.65;;;;;;;3.10;57.87;101141.00;5106959;28;20051;-71
2024/01/28 04:15:50;;;;;;;7.32;4.45;;;;;;;3.07;57.76;101147.09;5106975;28;20102;-71
2024/01/28 04:18:17;;;;;;;6.15;3.63;;;;;;;3.12;57.74;101141.88;5106355;28;20088;-71
2024/01/28 04:20:44;;;;;;;7.00;3.65;;;;;;;3.07;57.68;101146.22;5106865;28;20047;-71
2024/01/28 04:23:11;;;;;;;6.90;3.55;;;;;;;3.06;58.06;101152.34;5106959;28;20089;-71
2024/01/28 04:25:39;;;;;;;6.38;3.90;;;;;;;3.10;57.82;101147.13;5106725;28;20153;-71
2024/01/28 04:28:06;;;;;;;6.88;4.43;;;;;;;3.10;57.60;101156.72;5107187;28;20044;-71
2024/01/28 04:30:32;;;;;;;7.38;3.72;;;;;;;3.08;58.02;101155.84;5106899;28;20040;-71
2024/01/28 04:32:59;;;;;;;7.35;4.47;;;;;;;2.63;58.07;101088.44;5107179;28;20040;-71
2024/01/28 04:35:26;;;;;;;7.57;4.10;;;;;;;2.65;58.17;101091.94;5106513;28;20192;-71
2024/01/28 04:37:52;;;;;;;6.68;4.80;;;;;;;3.00;58.41;101166.28;5106203;28;20059;-71
2024/01/28 04:40:19;;;;;;;7.30;5.32;;;;;;;2.79;58.40;101132.16;5106563;28;20040;-71
2024/01/28 04:42:47;;;;;;;9.85;5.30;;;;;;;3.00;58.59;101163.66;5105761;28;20063;-71
2024/01/28 04:45:13;;;;;;;9.35;4.85;;;;;;;2.80;58.30;101134.78;5106308;28;20043;-71
2024/01/28 04:47:40;;;;;;;7.00;4.65;;;;;;;3.02;58.53;101182.00;5106374;28;20076;-71
2024/01/28 04:50:09;;;;;;;10.60;5.13;;;;;;;3.00;58.44;101175.88;5106556;28;20044;-71
2024/01/28 04:52:35;;;;;;;8.90;5.05;;;;;;;3.04;58.47;101177.66;5106574;28;20317;-70
2024/01/28 04:55:02;;;;;;;6.70;5.55;;;;;;;3.03;58.06;101183.75;5106472;28;20043;-71
2024/01/28 04:57:29;;;;;;;6.82;4.07;;;;;;;3.01;57.98;101180.25;5106143;28;20051;-71
2024/01/28 04:59:57;;;;;;;7.53;5.05;;;;;;;2.98;58.12;101186.34;5106363;28;20185;-71
2024/01/28 05:02:23;;;;;;;6.68;4.70;;;;;;;2.90;58.40;101182.81;5106353;28;20104;-71
2024/01/28 05:04:50;;;;;;;8.40;4.80;;;;;;;2.91;58.22;101186.31;5105226;28;20043;-70
2024/01/28 05:07:17;;;;;;;8.60;4.18;;;;;;;2.88;58.25;101187.19;5116270;28;20208;-71
2024/01/28 05:09:44;;;;;;;5.80;3.80;;;;;;;2.86;58.39;101179.31;5125257;28;20039;-71
2024/01/28 05:12:11;;;;;;;6.32;4.20;;;;;;;2.88;58.18;101187.19;5126746;28;20089;-70
2024/01/28 05:14:37;;;;;;;6.30;4.57;;;;;;;2.92;58.24;101185.44;5126218;28;20339;-71
2024/01/28 05:17:05;;;;;;;6.82;4.10;;;;;;;2.91;58.06;101192.44;5126474;28;20051;-71
2024/01/28 05:19:32;;;;;;;7.38;4.30;;;;;;;2.51;58.24;101124.16;5126436;28;20039;-71
2024/01/28 05:21:59;;;;;;;5.45;4.28;;;;;;;2.82;58.28;101181.91;5126459;28;20066;-71
2024/01/28 05:24:26;;;;;;;8.93;5.60;;;;;;;2.82;58.19;101180.16;5126352;28;20044;-71
2024/01/28 05:26:52;;;;;;;8.45;4.57;;;;;;;2.84;58.20;101183.66;5125287;28;20074;-71
2024/01/28 05:29:19;;;;;;;6.45;4.68;;;;;;;2.31;58.08;101109.19;5126281;28;20044;-71
2024/01/28 05:31:45;;;;;;;6.90;4.15;;;;;;;2.79;58.29;101184.50;5126028;28;20039;-70
2024/01/28 05:34:14;;;;;;;8.85;4.70;;;;;;;2.58;58.32;101151.22;5126027;28;20043;-71
2024/01/28 05:36:41;;;;;;;8.27;4.35;;;;;;;2.73;58.38;101187.97;5125489;28;20118;-71
2024/01/28 05:39:08;;;;;;;8.25;4.18;;;;;;;2.72;58.56;101183.59;5126544;28;20105;-71
2024/01/28 05:41:35;;;;;;;6.82;4.00;;;;;;;2.76;58.22;101188.00;5125887;28;20066;-71
2024/01/28 05:44:02;;;;;;;8.82;5.65;;;;;;;2.77;58.53;101196.72;5126761;28;20043;-70
2024/01/28 05:46:29;;;;;;;6.57;4.75;;;;;;;2.73;58.54;101194.94;5126497;28;20055;-71
2024/01/28 05:48:55;;;;;;;8.77;4.70;;;;;;;2.69;58.70;101191.44;5126116;28;20051;-70
2024/01/28 05:51:25;;;;;;;7.05;3.83;;;;;;;2.68;58.70;101186.19;5126101;28;20078;-71
2024/01/28 05:53:52;;;;;;;6.07;3.80;;;;;;;2.62;58.85;101194.88;5126104;28;20089;-71
2024/01/28 05:56:18;;;;;;;11.30;5.47;;;;;;;2.28;58.69;101127.50;5125958;28;20043;-71
2024/01/28 05:58:44;;;;;;;8.07;5.18;;;;;;;2.51;58.94;101163.41;5126024;28;20058;-71
2024/01/28 06:01:11;;;;;;;7.28;4.00;;;;;;;2.65;58.91;101188.78;5124875;28;20047;-70
2024/01/28 06:03:38;;;;;;;7.85;5.07;;;;;;;2.43;58.61;101149.41;5125762;28;20053;-71
2024/01/28 06:06:05;;;;;;;7.55;4.93;;;;;;;2.66;58.81;101193.16;5124795;28;20284;-71
2024/01/28 06:08:34;;;;;;;10.38;4.68;;;;;;;2.65;58.85;101186.19;5125980;28;20039;-71
2024/01/28 06:11:00;;;;;;;9.23;4.22;;;;;;;2.64;58.65;101189.66;5126077;28;20349;-71
2024/01/28 06:13:27;;;;;;;5.88;4.60;;;;;;;2.60;59.02;101180.91;5125946;28;20319;-71
2024/01/28 06:15:53;;;;;;;10.27;4.45;;;;;;;2.52;59.35;101183.47;5125899;28;20187;-71
2024/01/28 06:18:20;;;;;;;8.73;4.55;;;;;;;2.55;59.22;101182.63;5124742;28;20040;-70
2024/01/28 06:20:47;;;;;;;7.43;5.15;;;;;;;2.50;59.28;101189.56;5128747;28;20188;-71
2024/01/28 06:23:14;;;;;;;5.72;4.40;;;;;;;2.51;59.25;101178.22;5129665;28;20215;-71
2024/01/28 06:25:42;;;;;;;7.95;4.03;;;;;;;2.52;59.23;101180.88;5129755;28;20039;-71
2024/01/28 06:28:09;;;;;;;7.53;4.70;;;;;;;2.54;59.29;101184.38;5129819;28;20059;-71
2024/01/28 06:30:36;;;;;;;5.82;4.15;;;;;;;2.58;59.07;101185.25;5129620;28;20051;-71
2024/01/28 06:33:03;;;;;;;6.82;3.90;;;;;;;2.54;59.32;101191.34;5128393;28;20123;-71
2024/01/28 06:35:30;;;;;;;7.75;4.68;;;;;;;2.46;59.55;101196.53;5129538;28;20272;-71
2024/01/28 06:37:57;;;;;;;8.30;4.63;;;;;;;2.42;59.42;101202.59;5129837;28;20123;-71
2024/01/28 06:40:24;;;;;;;9.00;4.07;;;;;;;2.46;59.55;101198.28;5129491;28;20047;-71
2024/01/28 06:42:52;;;;;;;9.02;4.65;;;;;;;2.45;59.37;101193.91;5129419;28;20065;-70
2024/01/28 06:45:19;;;;;;;7.32;4.10;;;;;;;2.46;59.32;101187.78;5129376;28;20057;-70
2024/01/28 06:47:46;;;;;;;10.13;4.07;;;;;;;2.16;59.68;101157.94;5128191;28;20203;-71
2024/01/28 06:50:12;;;;;;;7.50;3.75;;;;;;;2.09;59.53;101136.94;5128913;28;20042;-71
2024/01/28 06:52:39;;;;;;;5.22;4.57;;;;;;;2.39;59.75;101189.50;5129201;28;20181;-71
2024/01/28 06:55:06;;;;;;;6.28;3.85;;;;;;;2.41;59.30;101190.38;5128989;28;20043;-71
2024/01/28 06:57:33;;;;;;;8.07;4.18;;;;;;;2.42;59.38;101188.63;5128372;28;20052;-71
2024/01/28 07:00:01;;;;;;;6.05;4.07;;;;;;;2.42;59.40;101183.41;5129081;28;20048;-70
2024/01/28 07:02:28;;;;;;;9.52;4.05;;;;;;;2.36;59.18;101189.47;5128731;28;20300;-71
2024/01/28 07:04:55;;;;;;;7.35;3.72;;;;;;;2.09;59.69;101155.25;5128950;28;20059;-71
2024/01/28 07:07:22;;;;;;;7.55;4.05;;;;;;;2.38;59.34;101207.81;5128423;28;20063;-71
2024/01/28 07:09:49;;;;;;;6.60;3.90;;;;;;;2.40;59.31;101206.94;5128764;28;20222;-71
2024/01/28 07:12:16;;;;;;;7.80;4.15;;;;;;;2.39;59.43;101212.16;5128794;28;20331;-71
2024/01/28 07:14:42;;;;;;;11.85;4.47;;;;;;;2.41;59.55;101210.44;5128752;28;20054;-71
2024/01/28 07:17:11;;;;;;;7.80;4.63;;;;;;;2.43;59.44;101216.56;5127813;28;20361;-71
2024/01/28 07:19:40;;;;;;;8.52;4.93;;;;;;;2.43;59.35;101217.44;5128893;28;20031;-71
2024/01/28 07:22:07;;;;;;;6.75;3.85;;;;;;;2.42;59.41;101220.03;5127500;28;20039;-70
2024/01/28 07:24:33;;;;;;;8.13;3.60;;;;;;;2.44;59.50;101218.31;5128549;28;20070;-71
2024/01/28 07:27:00;;;;;;;7.82;4.10;;;;;;;2.44;59.68;101218.31;5128935;28;20192;-71
2024/01/28 07:29:27;;;;;;;6.95;4.95;;;;;;;2.49;59.36;101217.47;5127462;28;20050;-71
2024/01/28 07:31:53;;;;;;;10.35;4.10;;;;;;;2.48;59.49;101209.63;5127576;28;20043;-70
2024/01/28 07:34:23;;;;;;;8.85;4.00;;;;;;;2.45;59.96;101210.47;5128663;28;20040;-71
2024/01/28 07:36:51;;;;;;;4.65;3.95;;;;;;;2.51;59.62;101204.41;5128579;28;20043;-70
2024/01/28 07:39:17;;;;;;;6.80;5.45;;;;;;;1.61;59.89;101062.50;5128505;28;20047;-71
2024/01/28 07:41:44;;;;;;;11.43;4.38;;;;;;;2.54;59.85;101199.19;5128281;28;20040;-71
2024/01/28 07:44:10;;;;;;;7.43;4.50;;;;;;;2.55;60.33;101200.94;5127905;28;20097;-71
2024/01/28 07:46:37;;;;;;;6.60;3.83;;;;;;;2.67;60.12;101192.28;5128077;28;20112;-70
2024/01/28 07:49:04;;;;;;;8.32;3.95;;;;;;;2.78;60.01;101199.34;5128034;28;20188;-71
2024/01/28 07:51:32;;;;;;;7.00;3.45;;;;;;;2.87;59.67;101207.25;5127986;28;20307;-70
2024/01/28 07:53:58;;;;;;;8.20;4.55;;;;;;;2.99;59.75;101210.81;5128264;28;20048;-71
2024/01/28 07:56:25;;;;;;;13.15;5.25;;;;;;;3.12;59.88;101213.50;5126961;28;20039;-71
2024/01/28 07:58:51;;;;;;;9.18;5.03;;;;;;;3.15;59.34;101213.50;5127827;28;20039;-71
2024/01/28 08:01:18;;;;;;;6.57;3.97;;;;;;;3.34;59.24;101232.81;5127753;28;20196;-71
2024/01/28 08:03:45;;;;;;;9.98;5.03;;;;;;;3.47;58.74;101226.75;5127763;28;20049;-71
2024/01/28 08:06:12;;;;;;;7.95;4.90;;;;;;;3.52;58.75;101214.53;5127536;28;20039;-71
2024/01/28 08:08:40;;;;;;;9.77;5.32;;;;;;;3.17;58.31;101150.63;5127925;28;20105;-71
2024/01/28 08:11:07;;;;;;;6.70;5.10;;;;;;;3.70;58.70;101233.81;5128124;28;20075;-71
2024/01/28 08:13:33;;;;;;;7.28;5.38;;;;;;;3.78;58.63;101229.44;5127556;28;20039;-71
2024/01/28 08:16:03;;;;;;;10.82;6.00;;;;;;;3.93;58.43;101231.22;5127282;28;20208;-71
2024/01/28 08:18:30;;;;;;;10.93;5.97;;;;;;;4.04;57.73;101235.63;5127799;28;20284;-71
2024/01/28 08:20:57;;;;;;;8.57;5.38;;;;;;;4.04;57.67;101242.59;5126516;28;20042;-71
2024/01/28 08:23:25;;;;;;;7.55;5.43;;;;;;;4.24;57.44;101234.78;5127650;28;20059;-71
2024/01/28 08:25:54;;;;;;;9.68;5.22;;;;;;;4.42;57.11;101235.66;5126924;28;20039;-71
2024/01/28 08:28:22;;;;;;;10.07;5.93;;;;;;;4.61;57.03;101228.66;5127166;28;20043;-71
2024/01/28 08:30:48;;;;;;;10.35;6.35;;;;;;;4.30;56.61;101140.31;5126843;28;20095;-71
2024/01/28 08:33:15;;;;;;;6.82;5.65;;;;;;;4.75;55.78;101219.00;5127039;28;20092;-71
2024/01/28 08:35:43;;;;;;;17.58;6.93;;;;;;;4.87;55.60;101225.09;5126694;28;20074;-71
2024/01/28 08:38:10;;;;;;;12.63;6.72;;;;;;;5.16;55.68;101225.06;5127030;28;20051;-71
2024/01/28 08:40:37;;;;;;;12.35;6.65;;;;;;;5.30;55.03;101226.75;5126730;28;20092;-71
2024/01/28 08:43:07;;;;;;;10.68;6.85;;;;;;;5.43;54.34;101224.94;5127168;28;20050;-71
2024/01/28 08:45:36;;;;;;;10.88;5.78;;;;;;;5.13;54.53;101162.88;5126093;28;20067;-71
2024/01/28 08:48:03;;;;;;;10.00;5.47;;;;;;;5.78;53.99;101214.25;5126582;28;20035;-71
2024/01/28 08:50:29;;;;;;;13.98;8.18;;;;;;;6.00;55.41;101212.34;5126888;28;20043;-71
2024/01/28 08:52:56;;;;;;;7.82;6.00;;;;;;;6.12;52.95;101211.38;5126473;28;20051;-71
2024/01/28 08:55:23;;;;;;;12.60;6.68;;;;;;;6.38;52.66;101209.41;5126679;28;20093;-71
2024/01/28 08:57:49;;;;;;;11.55;5.53;;;;;;;6.58;52.20;101207.47;5125826;28;20047;-71
2024/01/28 09:00:19;;;;;;;10.90;5.68;;;;;;;6.87;51.73;101201.94;5126074;28;20085;-70
2024/01/28 09:02:46;;;;;;;9.93;4.68;;;;;;;6.96;51.69;101208.88;5126374;28;20054;-71
2024/01/28 09:05:13;;;;;;;9.82;4.53;;;;;;;7.07;51.89;101202.59;5126549;28;20039;-71
2024/01/28 09:07:41;;;;;;;8.75;5.82;;;;;;;7.29;51.32;101208.47;5124984;28;20100;-70
2024/01/28 09:10:09;;;;;;;6.63;4.57;;;;;;;7.25;50.83;101175.13;5124697;28;20050;-71
2024/01/28 09:12:35;;;;;;;8.38;3.90;;;;;;;7.63;50.82;101208.94;5126164;28;20050;-71
2024/01/28 09:15:02;;;;;;;9.73;5.45;;;;;;;7.75;50.03;101210.53;5125899;28;20356;-71
2024/01/28 09:17:30;;;;;;;9.73;5.28;;;;;;;7.65;49.29;101190.44;5126059;28;20118;-71
2024/01/28 09:19:57;;;;;;;7.90;3.70;;;;;;;7.89;49.15;101183.94;5125167;28;20169;-71
2024/01/28 09:22:24;;;;;;;10.15;5.03;;;;;;;8.30;48.97;101217.63;5124739;28;20036;-71
2024/01/28 09:24:50;;;;;;;9.00;3.40;;;;;;;8.24;48.31;101215.94;5126120;28;20073;-71
2024/01/28 09:27:17;;;;;;;9.77;4.00;;;;;;;8.32;48.27;101182.34;5124484;28;20035;-71
2024/01/28 09:29:44;;;;;;;6.47;3.50;;;;;;;8.64;48.53;101212.63;5126374;28;20209;-71
2024/01/28 09:32:11;;;;;;;7.25;4.07;;;;;;;8.62;47.12;101220.59;5125892;28;20074;-71
2024/01/28 09:34:39;;;;;;;9.43;4.63;;;;;;;8.80;46.90;101229.97;5124720;28;20044;-71
2024/01/28 09:37:07;;;;;;;10.38;5.65;;;;;;;9.11;46.58;101218.81;5125689;28;20050;-71
2024/01/28 09:39:34;;;;;;;8.70;4.78;;;;;;;9.19;46.39;101216.88;5125250;28;20163;-71
2024/01/28 09:42:11;;;;;;;9.20;5.55;;;;;;;9.36;45.73;101213.94;5125526;28;20043;-71
2024/01/28 09:44:37;;;;;;;9.45;5.28;;;;;;;9.45;45.50;101208.47;5124395;28;20040;-71
2024/01/28 09:47:06;;;;;;;7.65;4.38;;;;;;;9.43;45.50;101211.16;5124416;28;20257;-70
2024/01/28 09:49:39;;;;;;;8.98;5.20;;;;;;;9.24;45.02;101138.31;5125246;28;20043;-71
2024/01/28 09:52:09;;;;;;;10.05;5.13;;;;;;;9.75;44.76;101210.44;5125807;28;20048;-71
2024/01/28 09:54:36;;;;;;;9.32;5.65;;;;;;;9.91;45.52;101203.03;5126887;28;20036;-71
2024/01/28 09:57:05;;;;;;;11.43;4.53;;;;;;;9.53;44.14;101156.25;5130049;28;20310;-71
2024/01/28 09:59:36;;;;;;;7.20;4.03;;;;;;;9.98;44.17;101211.72;5130107;28;20051;-71
2024/01/28 10:02:03;;;;;;;8.05;4.03;;;;;;;10.12;43.76;101197.22;5130380;28;20044;-71
2024/01/28 10:04:30;;;;;;;11.38;6.32;;;;;;;10.38;43.24;101191.28;5129787;28;20050;-71
2024/01/28 10:06:59;;;;;;;7.03;5.35;;;;;;;10.52;43.08;101190.94;5128041;28;20051;-71
2024/01/28 10:09:27;;;;;;;11.68;7.25;;;;;;;10.46;42.80;101191.97;5129012;28;20047;-71
2024/01/28 10:11:54;;;;;;;6.45;4.22;;;;;;;10.46;42.20;101189.31;5129070;28;20088;-71
2024/01/28 10:14:20;;;;;;;6.88;3.88;;;;;;;10.40;42.28;101192.13;5129548;28;20067;-71
2024/01/28 10:16:48;;;;;;;6.28;3.85;;;;;;;10.52;42.63;101197.09;5129004;28;20052;-71
2024/01/28 10:19:15;;;;;;;9.07;4.82;;;;;;;10.57;42.80;101176.66;5129257;28;20063;-71
2024/01/28 10:21:43;;;;;;;9.40;4.55;;;;;;;10.23;42.73;101121.00;5128866;28;20043;-71
2024/01/28 10:24:10;;;;;;;12.02;4.72;;;;;;;10.05;41.94;101102.03;5129309;28;20070;-71
2024/01/28 10:26:38;;;;;;;8.30;3.95;;;;;;;10.13;42.16;101100.06;5128792;28;20035;-71
2024/01/28 10:29:08;;;;;;;11.20;4.65;;;;;;;10.86;41.81;101177.69;5128603;28;20045;-71
2024/01/28 10:31:35;;;;;;;9.52;4.65;;;;;;;10.84;41.25;101172.41;5128850;28;20176;-70
2024/01/28 10:34:01;;;;;;;8.02;5.03;;;;;;;10.73;41.77;101165.63;5128857;28;20092;-71
2024/01/28 10:36:28;;;;;;;9.55;5.00;;;;;;;10.93;41.92;101158.03;5128530;28;20303;-71
2024/01/28 10:39:01;;;;;;;9.52;4.72;;;;;;;11.29;41.13;101153.44;5129036;28;20051;-71
2024/01/28 10:41:28;;;;;;;7.55;5.00;;;;;;;11.26;40.61;101115.50;5128259;28;20292;-71
2024/01/28 10:43:58;;;;;;;7.70;4.78;;;;;;;11.46;40.61;101148.50;5128969;28;20051;-71
2024/01/28 10:46:30;;;;;;;10.05;4.63;;;;;;;11.64;40.42;101157.69;5128553;28;20039;-71
2024/01/28 10:49:03;;;;;;;9.10;5.85;;;;;;;11.53;40.39;101142.06;5127434;28;20101;-71
2024/01/28 10:51:32;;;;;;;8.70;5.07;;;;;;;11.53;40.02;101163.31;5128118;28;20039;-71
2024/01/28 10:54:00;;;;;;;11.45;4.88;;;;;;;11.70;40.10;101152.19;5128887;28;20056;-71
2024/01/28 10:56:26;;;;;;;8.60;4.28;;;;;;;11.70;39.82;101140.69;5128746;28;20097;-71
2024/01/28 10:58:53;;;;;;;6.50;4.13;;;;;;;11.64;39.43;101140.88;5128827;28;20130;-71
2024/01/28 11:01:22;;;;;;;9.90;4.88;;;;;;;11.72;39.04;101150.34;5128377;28;20047;-71
2024/01/28 11:03:49;;;;;;;12.25;4.78;;;;;;;11.75;39.37;101147.59;5128070;28;20039;-71
2024/01/28 11:06:17;;;;;;;7.38;4.28;;;;;;;12.03;39.85;101152.03;5125595;28;20253;-71
2024/01/28 11:08:43;;;;;;;8.23;4.25;;;;;;;11.86;38.53;101108.25;5128257;28;20043;-71
2024/01/28 11:11:10;;;;;;;9.98;4.68;;;;;;;12.07;38.58;101135.09;5128021;28;20089;-71
2024/01/28 11:13:38;;;;;;;10.38;5.40;;;;;;;12.06;38.61;101134.22;5128307;28;20288;-71
2024/01/28 11:16:07;;;;;;;10.15;4.43;;;;;;;11.96;38.76;101129.22;5128612;28;20047;-71
2024/01/28 11:18:35;;;;;;;6.45;3.63;;;;;;;12.01;38.40;101127.31;5127944;28;20204;-71
2024/01/28 11:21:11;;;;;;;9.93;4.35;;;;;;;12.07;37.89;101121.78;5128239;28;20084;-71
2024/01/28 11:23:44;;;;;;;7.47;3.90;;;;;;;12.15;37.89;101120.63;5128001;28;20102;-71
2024/01/28 11:26:16;;;;;;;4.72;3.30;;;;;;;12.16;38.08;101118.81;5128038;28;20043;-71
2024/01/28 11:28:47;;;;;;;6.38;3.30;;;;;;;12.25;37.67;101112.38;5128002;28;20071;-71
2024/01/28 11:31:31;;;;;;;7.53;3.70;;;;;;;12.07;38.00;101082.81;5128289;28;20050;-71